Time;durP1;ratioP1;P1;durP2;ratioP2;P2;SDS_P1;SDS_P2;PMS_P1;PMS_P2;Temp;Humidity;BMP_temperature;BMP_pressure;BME280_temperature;BME280_humidity;BME280_pressure;Samples;Min_cycle;Max_cycle;Signal;HPM_P1;HPM_P2
2024/02/23 00:00:54;;;;;;;4.20;3.90;;;6.80;99.90;;;;;;5092646;28;20166;-69
2024/02/23 00:03:19;;;;;;;4.47;4.20;;;6.70;99.90;;;;;;5091652;28;20176;-69
2024/02/23 00:05:45;;;;;;;4.10;3.90;;;6.70;99.90;;;;;;5091017;28;20215;-70
2024/02/23 00:08:10;;;;;;;3.67;3.47;;;6.70;99.90;;;;;;5092313;28;20402;-69
2024/02/23 00:10:36;;;;;;;3.67;3.43;;;6.70;99.90;;;;;;5092456;28;20169;-68
2024/02/23 00:13:01;;;;;;;3.73;3.53;;;6.70;99.90;;;;;;5092093;28;20554;-68
2024/02/23 00:15:27;;;;;;;3.53;3.30;;;6.70;99.90;;;;;;5092180;28;20177;-71
2024/02/23 00:17:53;;;;;;;3.73;3.40;;;6.80;99.90;;;;;;5086996;28;20198;-70
2024/02/23 00:20:18;;;;;;;3.80;3.60;;;6.70;99.90;;;;;;5071818;28;20177;-69
2024/02/23 00:22:44;;;;;;;3.70;3.40;;;6.60;99.90;;;;;;5071687;28;20627;-69
2024/02/23 00:25:09;;;;;;;3.70;3.50;;;6.50;99.90;;;;;;5071702;28;20170;-69
2024/02/23 00:27:35;;;;;;;4.37;3.93;;;6.50;99.90;;;;;;5071387;28;20193;-69
2024/02/23 00:30:01;;;;;;;3.87;3.57;;;6.40;99.90;;;;;;5071769;28;20623;-70
2024/02/23 00:32:27;;;;;;;4.53;4.33;;;6.30;99.90;;;;;;5074553;28;20264;-71
2024/02/23 00:34:52;;;;;;;4.33;3.70;;;6.30;99.90;;;;;;5091928;28;20204;-69
2024/02/23 00:37:18;;;;;;;4.37;3.97;;;6.20;99.90;;;;;;5091409;28;20229;-69
2024/02/23 00:39:43;;;;;;;4.07;3.77;;;6.20;99.90;;;;;;5091978;28;20220;-71
2024/02/23 00:42:09;;;;;;;4.10;3.90;;;6.10;99.90;;;;;;5091751;28;20260;-69
2024/02/23 00:44:34;;;;;;;4.23;4.03;;;6.10;99.90;;;;;;5091520;28;20195;-69
2024/02/23 00:47:01;;;;;;;4.10;3.80;;;6.00;99.90;;;;;;5059309;28;20202;-69
2024/02/23 00:49:28;;;;;;;4.53;3.67;;;5.90;99.90;;;;;;5071035;28;20170;-70
2024/02/23 00:51:55;;;;;;;4.10;3.80;;;5.90;99.90;;;;;;5071140;28;20633;-71
2024/02/23 00:54:20;;;;;;;4.00;3.70;;;5.90;99.90;;;;;;5071092;28;20177;-70
2024/02/23 00:56:46;;;;;;;4.40;4.00;;;5.90;99.90;;;;;;5071402;28;20573;-69
2024/02/23 00:59:12;;;;;;;4.20;3.80;;;5.80;99.90;;;;;;5071372;28;20315;-69
2024/02/23 01:01:37;;;;;;;4.20;3.90;;;5.70;99.90;;;;;;5083934;28;20181;-70
2024/02/23 01:04:03;;;;;;;3.80;3.60;;;5.70;99.90;;;;;;5091505;28;20248;-70
2024/02/23 01:06:29;;;;;;;4.03;3.73;;;5.70;99.90;;;;;;5073813;28;20540;-69
2024/02/23 01:08:54;;;;;;;4.07;3.80;;;5.70;99.90;;;;;;5073793;28;20184;-69
2024/02/23 01:11:20;;;;;;;4.23;3.80;;;5.70;99.90;;;;;;5092047;28;20537;-71
2024/02/23 01:13:45;;;;;;;3.80;3.60;;;5.70;99.90;;;;;;5087637;28;20174;-69
2024/02/23 01:16:11;;;;;;;6.67;3.80;;;5.70;99.90;;;;;;5071028;28;20190;-70
2024/02/23 01:18:37;;;;;;;5.37;3.67;;;5.70;99.90;;;;;;5071159;28;20198;-68
2024/02/23 01:21:02;;;;;;;5.83;3.70;;;5.70;99.90;;;;;;5071418;28;20590;-69
2024/02/23 01:23:28;;;;;;;4.13;3.77;;;5.70;99.90;;;;;;5070861;28;20171;-69
2024/02/23 01:25:53;;;;;;;4.20;3.80;;;5.70;99.90;;;;;;5078662;28;20219;-68
2024/02/23 01:28:19;;;;;;;3.70;3.50;;;5.70;99.90;;;;;;5090912;28;20162;-68
2024/02/23 01:30:45;;;;;;;4.80;3.47;;;5.70;99.90;;;;;;5091349;28;20256;-74
2024/02/23 01:33:10;;;;;;;3.73;3.40;;;5.70;99.90;;;;;;5091268;28;20412;-69
2024/02/23 01:35:36;;;;;;;4.03;3.47;;;5.70;99.90;;;;;;5090974;28;20259;-69
2024/02/23 01:38:02;;;;;;;4.10;3.60;;;5.60;99.90;;;;;;5091292;28;20738;-69
2024/02/23 01:40:28;;;;;;;3.70;3.50;;;5.60;99.90;;;;;;5085572;28;20174;-70
2024/02/23 01:43:04;;;;;;;3.93;3.47;;;5.60;99.90;;;;;;5071044;28;20205;-70
2024/02/23 01:45:31;;;;;;;3.83;3.63;;;5.60;99.90;;;;;;5070620;28;20182;-69
2024/02/23 01:47:57;;;;;;;4.30;4.00;;;5.50;99.90;;;;;;5070936;28;20249;-70
2024/02/23 01:50:24;;;;;;;3.70;3.50;;;5.50;99.90;;;;;;5070896;28;20257;-70
2024/02/23 01:52:52;;;;;;;4.10;3.80;;;5.50;99.90;;;;;;5071085;28;20547;-70
2024/02/23 01:55:20;;;;;;;4.20;3.90;;;5.40;99.90;;;;;;5071370;28;20175;-69
2024/02/23 01:57:47;;;;;;;4.23;4.03;;;5.40;99.90;;;;;;5083150;28;20212;-69
2024/02/23 02:00:16;;;;;;;3.83;3.63;;;5.40;99.90;;;;;;5089799;28;20532;-69
2024/02/23 02:02:44;;;;;;;3.80;3.60;;;5.30;99.90;;;;;;5071601;28;20205;-69
2024/02/23 02:05:09;;;;;;;6.33;3.73;;;5.30;99.90;;;;;;5074669;28;20231;-70
2024/02/23 02:07:35;;;;;;;4.17;3.90;;;5.30;99.90;;;;;;5074469;28;20364;-69
2024/02/23 02:10:03;;;;;;;4.20;3.90;;;5.30;99.90;;;;;;5093140;28;20669;-69
2024/02/23 02:12:29;;;;;;;4.50;3.40;;;5.30;99.90;;;;;;5092706;28;20173;-70
2024/02/23 02:14:55;;;;;;;5.23;4.73;;;5.30;99.90;;;;;;5094730;28;20684;-70
2024/02/23 02:17:21;;;;;;;4.33;4.03;;;5.20;99.90;;;;;;5094327;28;20201;-70
2024/02/23 02:19:48;;;;;;;6.33;4.20;;;5.20;99.90;;;;;;5094623;28;20254;-72
2024/02/23 02:22:14;;;;;;;4.40;3.80;;;5.30;99.90;;;;;;5094605;28;20240;-70
2024/02/23 02:24:42;;;;;;;4.07;3.80;;;5.20;99.90;;;;;;5094200;28;20173;-70
2024/02/23 02:27:08;;;;;;;5.60;5.03;;;5.20;99.90;;;;;;5089119;28;20182;-70
2024/02/23 02:29:34;;;;;;;6.07;4.30;;;5.10;99.90;;;;;;5073846;28;20170;-71
2024/02/23 02:32:00;;;;;;;4.10;3.90;;;5.20;99.90;;;;;;5074288;28;20170;-69
2024/02/23 02:34:25;;;;;;;4.90;4.60;;;5.20;99.90;;;;;;5073951;28;20166;-70
2024/02/23 02:36:51;;;;;;;6.07;4.57;;;5.20;99.90;;;;;;5082374;28;20205;-70
2024/02/23 02:39:17;;;;;;;5.17;4.00;;;5.20;99.90;;;;;;5094088;28;20577;-70
2024/02/23 02:41:42;;;;;;;4.40;4.10;;;5.30;99.90;;;;;;5093964;28;20169;-69
2024/02/23 02:44:09;;;;;;;5.47;3.77;;;5.30;99.90;;;;;;5088933;28;20170;-70
2024/02/23 02:46:35;;;;;;;4.20;3.90;;;5.30;99.90;;;;;;5073758;28;20197;-70
2024/02/23 02:49:01;;;;;;;4.67;4.20;;;5.30;99.90;;;;;;5073827;28;20253;-70
2024/02/23 02:51:26;;;;;;;4.83;4.43;;;5.30;99.90;;;;;;5073504;28;20362;-70
2024/02/23 02:53:52;;;;;;;4.03;3.70;;;5.30;99.90;;;;;;5073643;28;20251;-70
2024/02/23 02:56:18;;;;;;;4.43;4.13;;;5.30;99.90;;;;;;5073479;28;20273;-69
2024/02/23 02:58:43;;;;;;;4.23;3.93;;;5.30;99.90;;;;;;5076300;28;20181;-70
2024/02/23 03:01:09;;;;;;;4.10;3.90;;;5.30;99.90;;;;;;5093922;28;20215;-70
2024/02/23 03:03:35;;;;;;;8.20;3.80;;;5.20;99.90;;;;;;5093201;28;20170;-70
2024/02/23 03:06:00;;;;;;;4.53;4.27;;;5.30;99.90;;;;;;5091503;28;20275;-72
2024/02/23 03:08:26;;;;;;;4.93;4.20;;;5.20;99.90;;;;;;5093693;28;20519;-70
2024/02/23 03:10:52;;;;;;;7.37;4.70;;;5.30;99.90;;;;;;5075758;28;20226;-70
2024/02/23 03:13:17;;;;;;;6.43;4.53;;;5.30;99.90;;;;;;5093825;28;20612;-70
2024/02/23 03:15:43;;;;;;;8.57;5.70;;;5.30;99.90;;;;;;5085986;28;20224;-70
2024/02/23 03:18:12;;;;;;;5.37;4.97;;;5.40;99.90;;;;;;5073931;28;20202;-70
2024/02/23 03:20:38;;;;;;;5.00;4.60;;;5.40;99.90;;;;;;5073629;28;20158;-70
2024/02/23 03:23:03;;;;;;;8.47;5.50;;;5.40;99.90;;;;;;5073419;28;20707;-71
2024/02/23 03:25:29;;;;;;;11.73;6.47;;;5.40;99.90;;;;;;5088562;28;20182;-70
2024/02/23 03:27:55;;;;;;;6.00;4.20;;;5.30;99.90;;;;;;5093424;28;20227;-70
2024/02/23 03:30:21;;;;;;;6.63;5.60;;;5.30;99.90;;;;;;5093834;28;20181;-71
2024/02/23 03:32:47;;;;;;;5.53;4.40;;;5.30;99.90;;;;;;5091590;28;20169;-70
2024/02/23 03:35:12;;;;;;;7.43;5.63;;;5.20;99.90;;;;;;5093550;28;20530;-70
2024/02/23 03:37:38;;;;;;;4.73;4.27;;;5.20;99.90;;;;;;5093439;28;20212;-70
2024/02/23 03:40:06;;;;;;;4.07;3.77;;;5.20;99.90;;;;;;5093268;28;20703;-71
2024/02/23 03:42:31;;;;;;;6.63;4.47;;;5.20;99.90;;;;;;5092964;28;20187;-70
2024/02/23 03:44:57;;;;;;;4.40;4.10;;;5.20;99.90;;;;;;5079895;28;20880;-71
2024/02/23 03:47:22;;;;;;;4.33;3.70;;;5.20;99.90;;;;;;5072797;28;20623;-69
2024/02/23 03:49:48;;;;;;;10.00;4.40;;;5.20;99.90;;;;;;5073076;28;20592;-69
2024/02/23 03:52:14;;;;;;;6.23;3.90;;;5.20;99.90;;;;;;5081138;28;20180;-69
2024/02/23 03:54:39;;;;;;;5.33;4.40;;;5.20;99.90;;;;;;5092956;28;20200;-70
2024/02/23 03:57:05;;;;;;;5.47;4.53;;;5.20;99.90;;;;;;5074637;28;20259;-69
2024/02/23 03:59:30;;;;;;;6.87;4.23;;;5.20;99.90;;;;;;5092730;28;20177;-69
2024/02/23 04:01:56;;;;;;;4.37;3.77;;;5.30;99.90;;;;;;5075965;28;20205;-70
2024/02/23 04:04:22;;;;;;;5.67;4.60;;;5.40;99.90;;;;;;5072260;28;20182;-70
2024/02/23 04:06:47;;;;;;;5.17;4.67;;;5.50;99.90;;;;;;5072544;28;20690;-72
2024/02/23 04:09:13;;;;;;;4.43;4.13;;;5.60;99.90;;;;;;5072663;28;20550;-69
2024/02/23 04:11:39;;;;;;;5.40;3.80;;;5.70;99.90;;;;;;5072228;28;20635;-71
2024/02/23 04:14:07;;;;;;;5.20;3.70;;;5.70;99.90;;;;;;5072277;28;20170;-71
2024/02/23 04:16:33;;;;;;;4.47;3.80;;;5.60;99.90;;;;;;5087338;28;20213;-70
2024/02/23 04:19:00;;;;;;;4.00;3.70;;;5.70;99.90;;;;;;5092811;28;20247;-71
2024/02/23 04:21:26;;;;;;;6.83;4.03;;;5.70;99.90;;;;;;5092733;28;20207;-70
2024/02/23 04:23:52;;;;;;;4.47;4.17;;;5.70;99.90;;;;;;5092481;28;20552;-70
2024/02/23 04:26:17;;;;;;;5.07;4.30;;;5.80;99.90;;;;;;5091514;28;20197;-69
2024/02/23 04:28:43;;;;;;;6.57;4.00;;;5.80;99.90;;;;;;5085696;28;20208;-70
2024/02/23 04:31:09;;;;;;;4.70;4.20;;;5.90;99.90;;;;;;5072391;28;20177;-70
2024/02/23 04:33:36;;;;;;;6.23;4.50;;;5.90;99.90;;;;;;5071520;28;20201;-70
2024/02/23 04:36:03;;;;;;;6.93;4.10;;;5.80;99.90;;;;;;5072109;28;20300;-70
2024/02/23 04:38:29;;;;;;;4.77;4.30;;;5.80;99.90;;;;;;5072006;28;20214;-70
2024/02/23 04:40:55;;;;;;;4.93;3.87;;;5.80;99.90;;;;;;5072170;28;20166;-70
2024/02/23 04:43:20;;;;;;;6.37;3.83;;;5.80;99.90;;;;;;5076509;28;20331;-72
2024/02/23 04:45:46;;;;;;;4.70;4.30;;;5.70;99.90;;;;;;5092307;28;20194;-70
2024/02/23 04:48:11;;;;;;;4.23;3.70;;;5.70;99.90;;;;;;5092254;28;20189;-70
2024/02/23 04:50:37;;;;;;;4.37;4.07;;;5.70;99.90;;;;;;5091974;28;20188;-70
2024/02/23 04:53:03;;;;;;;6.03;4.33;;;5.60;99.90;;;;;;5091889;28;20263;-70
2024/02/23 04:55:28;;;;;;;4.10;3.80;;;5.60;99.90;;;;;;5091899;28;20182;-69
2024/02/23 04:57:54;;;;;;;6.60;4.37;;;5.50;99.90;;;;;;5076119;28;20205;-70
2024/02/23 05:00:19;;;;;;;7.23;4.33;;;5.50;99.90;;;;;;5071619;28;20181;-69
2024/02/23 05:02:46;;;;;;;7.60;4.10;;;5.50;99.90;;;;;;5071455;28;20272;-69
2024/02/23 05:05:12;;;;;;;6.93;4.90;;;5.50;99.90;;;;;;5076900;28;20190;-69
2024/02/23 05:07:37;;;;;;;6.47;4.37;;;5.40;99.90;;;;;;5091640;28;20189;-70
2024/02/23 05:10:04;;;;;;;4.60;4.20;;;5.40;99.90;;;;;;5091558;28;20587;-70
2024/02/23 05:12:30;;;;;;;5.60;4.13;;;5.40;99.90;;;;;;5091436;28;20230;-70
2024/02/23 05:14:56;;;;;;;5.13;3.93;;;5.40;99.90;;;;;;5091834;28;20181;-70
2024/02/23 05:17:21;;;;;;;5.73;3.93;;;5.40;99.90;;;;;;5091457;28;20201;-70
2024/02/23 05:19:47;;;;;;;5.93;3.80;;;5.40;99.90;;;;;;5089970;28;20276;-70
2024/02/23 05:22:13;;;;;;;4.20;3.80;;;5.40;99.90;;;;;;5091799;28;20603;-69
2024/02/23 05:24:38;;;;;;;5.20;3.90;;;5.30;99.90;;;;;;5091497;28;20166;-70
2024/02/23 05:27:04;;;;;;;6.33;3.80;;;5.30;99.90;;;;;;5091171;28;20216;-71
2024/02/23 05:29:29;;;;;;;7.20;3.90;;;5.20;99.90;;;;;;5076091;28;20268;-71
2024/02/23 05:31:55;;;;;;;4.17;3.83;;;5.10;99.90;;;;;;5071431;28;20186;-70
2024/02/23 05:34:21;;;;;;;6.47;4.20;;;5.00;99.90;;;;;;5071221;28;20719;-69
2024/02/23 05:36:47;;;;;;;7.77;4.27;;;5.00;99.90;;;;;;5071693;28;20201;-70
2024/02/23 05:39:15;;;;;;;7.17;5.13;;;4.90;99.90;;;;;;5075149;28;20181;-70
2024/02/23 05:41:41;;;;;;;10.13;5.87;;;4.90;99.90;;;;;;5074679;28;20177;-70
2024/02/23 05:44:07;;;;;;;7.97;4.53;;;4.90;99.90;;;;;;5094408;28;20174;-70
2024/02/23 05:46:34;;;;;;;5.13;4.50;;;4.90;99.90;;;;;;5095000;28;20185;-70
2024/02/23 05:49:00;;;;;;;6.50;4.07;;;4.90;99.90;;;;;;5086117;28;20186;-70
2024/02/23 05:51:29;;;;;;;5.17;4.67;;;4.90;99.90;;;;;;5074945;28;20554;-69
2024/02/23 05:53:54;;;;;;;5.80;3.97;;;4.90;99.90;;;;;;5075683;28;20212;-70
2024/02/23 05:56:20;;;;;;;5.23;3.77;;;5.00;99.90;;;;;;5074732;28;20640;-69
2024/02/23 05:58:46;;;;;;;8.27;4.20;;;5.10;99.90;;;;;;5081194;28;20209;-69
2024/02/23 06:01:11;;;;;;;4.57;4.17;;;5.10;99.90;;;;;;5095152;28;20180;-69
2024/02/23 06:03:37;;;;;;;4.43;4.10;;;5.10;99.90;;;;;;5096123;28;20627;-70
2024/02/23 06:06:08;;;;;;;4.10;3.70;;;5.10;99.90;;;;;;5096493;28;20186;-70
2024/02/23 06:08:33;;;;;;;5.03;4.63;;;5.10;99.90;;;;;;5095730;28;20235;-69
2024/02/23 06:10:59;;;;;;;5.27;4.50;;;5.00;99.90;;;;;;5095511;28;20182;-69
2024/02/23 06:13:25;;;;;;;4.07;3.83;;;5.00;99.90;;;;;;5092655;28;20219;-69
2024/02/23 06:15:51;;;;;;;6.10;4.03;;;5.00;99.90;;;;;;5095253;28;20201;-70
2024/02/23 06:18:16;;;;;;;4.10;3.80;;;4.90;99.90;;;;;;5095023;28;20209;-69
2024/02/23 06:20:42;;;;;;;8.27;4.33;;;4.90;99.90;;;;;;5094654;28;20200;-69
2024/02/23 06:23:08;;;;;;;4.60;4.23;;;4.90;99.90;;;;;;5094172;28;20180;-69
2024/02/23 06:25:33;;;;;;;4.70;4.10;;;4.90;99.90;;;;;;5094393;28;20646;-69
2024/02/23 06:27:59;;;;;;;5.40;4.50;;;5.00;99.90;;;;;;5083673;28;20667;-68
2024/02/23 06:30:24;;;;;;;4.53;3.67;;;5.00;99.90;;;;;;5087800;28;20188;-69
2024/02/23 06:32:50;;;;;;;5.90;4.20;;;5.00;99.90;;;;;;5094475;28;20182;-69
2024/02/23 06:35:15;;;;;;;5.03;3.93;;;5.00;99.90;;;;;;5095456;28;20616;-69
2024/02/23 06:37:41;;;;;;;4.50;4.07;;;5.00;99.90;;;;;;5086081;28;20228;-69
2024/02/23 06:40:07;;;;;;;4.50;4.20;;;4.90;99.90;;;;;;5083485;28;20243;-69
2024/02/23 06:42:33;;;;;;;6.40;4.10;;;4.90;99.90;;;;;;5093767;28;20170;-69
2024/02/23 06:44:59;;;;;;;7.50;4.37;;;4.90;99.90;;;;;;5090450;28;20186;-70
2024/02/23 06:47:25;;;;;;;4.97;4.30;;;4.80;99.90;;;;;;5079143;28;20205;-69
2024/02/23 06:49:50;;;;;;;5.97;4.50;;;4.80;99.90;;;;;;5078142;28;20214;-71
2024/02/23 06:52:16;;;;;;;5.10;4.70;;;4.80;99.90;;;;;;5073732;28;20184;-70
2024/02/23 06:54:42;;;;;;;7.50;4.30;;;4.90;99.90;;;;;;5076335;28;20177;-70
2024/02/23 06:57:08;;;;;;;8.53;4.40;;;4.90;99.90;;;;;;5091693;28;20231;-72
2024/02/23 06:59:33;;;;;;;5.07;4.10;;;5.10;99.90;;;;;;5093796;28;20228;-69
2024/02/23 07:01:59;;;;;;;4.30;3.90;;;5.20;99.90;;;;;;5075320;28;20265;-69
2024/02/23 07:04:25;;;;;;;6.73;4.30;;;5.30;99.90;;;;;;5093581;28;20209;-69
2024/02/23 07:06:54;;;;;;;4.63;4.20;;;5.40;99.90;;;;;;5093361;28;20688;-68
2024/02/23 07:09:19;;;;;;;6.67;4.27;;;5.40;99.90;;;;;;5093622;28;20222;-69
2024/02/23 07:11:45;;;;;;;4.80;4.37;;;5.40;99.90;;;;;;5092682;28;20675;-70
2024/02/23 07:14:14;;;;;;;4.77;4.03;;;5.40;99.90;;;;;;5092325;28;20189;-70
2024/02/23 07:16:39;;;;;;;4.50;4.07;;;5.30;99.90;;;;;;5093004;28;20195;-70
2024/02/23 07:19:05;;;;;;;4.47;4.07;;;5.30;99.90;;;;;;5093151;28;20170;-69
2024/02/23 07:21:31;;;;;;;4.93;4.30;;;5.20;99.90;;;;;;5093206;28;20291;-69
2024/02/23 07:23:56;;;;;;;6.20;4.80;;;5.10;99.90;;;;;;5093162;28;20634;-69
2024/02/23 07:26:22;;;;;;;5.90;3.90;;;5.10;99.90;;;;;;5092606;28;20193;-70
2024/02/23 07:28:49;;;;;;;4.30;3.90;;;5.10;99.90;;;;;;5074268;28;20178;-70
2024/02/23 07:31:14;;;;;;;4.20;3.90;;;5.00;99.90;;;;;;5072743;28;20166;-70
2024/02/23 07:33:42;;;;;;;6.50;4.53;;;5.10;99.90;;;;;;5072546;28;20525;-69
2024/02/23 07:36:13;;;;;;;5.33;4.33;;;5.20;99.90;;;;;;5085177;28;20186;-69
2024/02/23 07:38:38;;;;;;;5.50;4.10;;;5.40;99.90;;;;;;5074398;28;20213;-69
2024/02/23 07:41:04;;;;;;;5.50;4.73;;;5.80;99.90;;;;;;5093092;28;20536;-69
2024/02/23 07:43:29;;;;;;;4.63;4.00;;;6.20;99.90;;;;;;5092435;28;20229;-69
2024/02/23 07:45:58;;;;;;;3.90;3.50;;;6.70;99.90;;;;;;5092766;28;20303;-70
2024/02/23 07:48:23;;;;;;;4.17;3.90;;;7.00;99.90;;;;;;5092725;28;20554;-70
2024/02/23 07:50:49;;;;;;;3.20;3.00;;;7.40;99.90;;;;;;5092628;28;20169;-69
2024/02/23 07:53:14;;;;;;;3.53;3.30;;;7.80;99.90;;;;;;5092137;28;20165;-69
2024/02/23 07:55:40;;;;;;;3.30;3.00;;;8.20;99.90;;;;;;5092453;28;20180;-69
2024/02/23 07:58:06;;;;;;;10.50;3.20;;;8.40;99.90;;;;;;5092575;28;20688;-70
2024/02/23 08:00:34;;;;;;;6.70;3.43;;;8.70;99.90;;;;;;5093017;28;20176;-70
2024/02/23 08:03:00;;;;;;;3.17;2.87;;;9.00;99.90;;;;;;5092398;28;20157;-69
2024/02/23 08:05:25;;;;;;;3.00;2.80;;;9.40;99.90;;;;;;5092588;28;20189;-69
2024/02/23 08:07:51;;;;;;;7.17;2.90;;;9.70;99.90;;;;;;5092151;28;20184;-69
2024/02/23 08:10:17;;;;;;;6.90;3.17;;;10.20;99.90;;;;;;5092167;28;20166;-70
2024/02/23 08:12:45;;;;;;;3.37;2.80;;;10.40;99.90;;;;;;5091974;28;20540;-69
2024/02/23 08:15:11;;;;;;;3.43;2.60;;;10.30;99.90;;;;;;5092193;28;20869;-70
2024/02/23 08:17:37;;;;;;;3.60;3.20;;;10.00;99.90;;;;;;5091655;28;20201;-69
2024/02/23 08:20:04;;;;;;;4.40;3.10;;;9.70;99.90;;;;;;5092181;28;20169;-69
2024/02/23 08:22:29;;;;;;;8.67;3.70;;;9.60;99.90;;;;;;5091788;28;20245;-70
2024/02/23 08:24:55;;;;;;;5.47;3.40;;;9.30;99.90;;;;;;5090858;28;20204;-69
2024/02/23 08:27:20;;;;;;;4.07;3.77;;;9.30;99.90;;;;;;5091773;28;20218;-69
2024/02/23 08:29:46;;;;;;;4.00;3.33;;;9.40;99.90;;;;;;5073277;28;20222;-69
2024/02/23 08:32:12;;;;;;;5.33;3.03;;;9.80;99.90;;;;;;5092075;28;20174;-68
2024/02/23 08:34:38;;;;;;;5.57;2.90;;;10.00;99.90;;;;;;5091999;28;20641;-70
2024/02/23 08:37:04;;;;;;;4.63;2.67;;;10.30;99.90;;;;;;5092266;28;20264;-70
2024/02/23 08:39:30;;;;;;;4.10;2.80;;;10.70;99.90;;;;;;5091601;28;20657;-70
2024/02/23 08:41:55;;;;;;;3.40;2.70;;;11.00;99.90;;;;;;5091534;28;20165;-70
2024/02/23 08:44:24;;;;;;;3.07;2.70;;;11.30;99.90;;;;;;5091844;28;20174;-70
2024/02/23 08:46:49;;;;;;;3.60;2.73;;;11.30;99.90;;;;;;5091397;28;20713;-70
2024/02/23 08:49:15;;;;;;;3.97;2.60;;;10.90;99.90;;;;;;5090202;28;20233;-70
2024/02/23 08:51:40;;;;;;;2.93;2.70;;;10.50;99.90;;;;;;5091601;28;20528;-70
2024/02/23 08:54:08;;;;;;;4.93;2.90;;;9.90;99.90;;;;;;5091744;28;20166;-70
2024/02/23 08:56:42;;;;;;;6.33;3.03;;;9.60;99.90;;;;;;5091278;28;20611;-70
2024/02/23 08:59:11;;;;;;;3.93;3.03;;;9.60;99.90;;;;;;5089822;28;20195;-69
2024/02/23 09:01:36;;;;;;;4.87;3.00;;;9.60;99.90;;;;;;5091343;28;20177;-70
2024/02/23 09:04:02;;;;;;;3.80;2.87;;;9.50;99.90;;;;;;5091262;28;20245;-72
2024/02/23 09:06:28;;;;;;;3.30;3.00;;;9.60;99.90;;;;;;5091576;28;20190;-69
2024/02/23 09:08:53;;;;;;;5.00;3.00;;;9.60;99.90;;;;;;5090998;28;20181;-70
2024/02/23 09:11:19;;;;;;;3.67;3.17;;;9.60;99.90;;;;;;5091060;28;20223;-69
2024/02/23 09:13:44;;;;;;;3.13;2.83;;;10.00;99.90;;;;;;5090870;28;20189;-70
2024/02/23 09:16:10;;;;;;;4.40;2.70;;;10.70;99.90;;;;;;5083236;28;20746;-69
2024/02/23 09:18:36;;;;;;;3.47;2.90;;;11.30;99.90;;;;;;5082599;28;20487;-70
2024/02/23 09:21:01;;;;;;;4.17;2.40;;;11.70;99.90;;;;;;5089206;28;20182;-70
2024/02/23 09:23:27;;;;;;;2.67;2.40;;;12.30;99.90;;;;;;5091280;28;20606;-71
2024/02/23 09:25:53;;;;;;;4.07;3.00;;;12.70;99.90;;;;;;5096333;28;20220;-73
2024/02/23 09:28:18;;;;;;;5.23;4.93;;;12.80;99.90;;;;;;5075501;28;20220;-70
2024/02/23 09:30:44;;;;;;;2.73;2.40;;;12.80;99.30;;;;;;5091131;28;20658;-70
2024/02/23 09:33:10;;;;;;;3.63;2.60;;;12.70;99.30;;;;;;5091213;28;20173;-71
2024/02/23 09:35:35;;;;;;;2.80;2.30;;;12.60;98.00;;;;;;5091336;28;20556;-71
2024/02/23 09:38:01;;;;;;;2.77;2.50;;;12.20;98.40;;;;;;5090496;28;20689;-70
2024/02/23 09:40:28;;;;;;;3.13;2.83;;;11.80;99.30;;;;;;5091878;28;20174;-69
2024/02/23 09:42:57;;;;;;;3.10;2.90;;;11.50;99.90;;;;;;5090793;28;20246;-71
2024/02/23 09:45:26;;;;;;;3.27;2.97;;;11.50;99.90;;;;;;5091482;28;20173;-69
2024/02/23 09:47:54;;;;;;;3.07;2.87;;;11.30;99.90;;;;;;5090646;28;20177;-72
2024/02/23 09:50:25;;;;;;;3.23;2.60;;;11.10;99.90;;;;;;5090819;28;20178;-72
2024/02/23 09:52:51;;;;;;;5.47;2.80;;;10.90;99.90;;;;;;5090608;28;20188;-70
2024/02/23 09:55:22;;;;;;;3.20;2.90;;;10.80;99.90;;;;;;5090981;28;20181;-70
2024/02/23 09:57:53;;;;;;;4.07;3.73;;;10.80;99.90;;;;;;5090847;28;20209;-70
2024/02/23 10:00:19;;;;;;;3.30;3.00;;;10.60;99.90;;;;;;5091095;28;20169;-69
2024/02/23 10:02:45;;;;;;;2.73;2.53;;;10.70;99.90;;;;;;5090688;28;20597;-71
2024/02/23 10:05:12;;;;;;;5.10;3.03;;;10.80;99.90;;;;;;5091143;28;20225;-70
2024/02/23 10:07:38;;;;;;;3.87;2.73;;;10.60;99.90;;;;;;5090099;28;20189;-70
2024/02/23 10:10:08;;;;;;;2.97;2.80;;;10.80;99.90;;;;;;5086561;28;20218;-70
2024/02/23 10:12:36;;;;;;;2.90;2.70;;;10.80;99.90;;;;;;5090289;28;20189;-71
2024/02/23 10:15:06;;;;;;;3.30;3.00;;;10.70;99.90;;;;;;5090720;28;20654;-70
2024/02/23 10:17:32;;;;;;;3.40;3.07;;;10.80;99.90;;;;;;5084189;28;20236;-70
2024/02/23 10:19:58;;;;;;;2.97;2.77;;;11.10;99.90;;;;;;5075434;28;20255;-70
2024/02/23 10:22:25;;;;;;;3.50;2.83;;;11.20;99.90;;;;;;5085446;28;20638;-71
2024/02/23 10:24:51;;;;;;;4.50;2.57;;;11.30;99.90;;;;;;5093008;28;20342;-71
2024/02/23 10:27:17;;;;;;;4.13;2.70;;;11.60;99.90;;;;;;5078349;28;20641;-70
2024/02/23 10:29:42;;;;;;;3.93;2.60;;;12.10;99.90;;;;;;5076228;28;20182;-70
2024/02/23 10:32:14;;;;;;;2.77;2.57;;;12.40;97.40;;;;;;5083934;28;20178;-69
2024/02/23 10:34:43;;;;;;;3.97;3.07;;;12.30;96.10;;;;;;5074371;28;20174;-71
2024/02/23 10:37:08;;;;;;;2.93;2.70;;;12.00;96.40;;;;;;5074050;28;20205;-70
2024/02/23 10:39:37;;;;;;;2.87;2.67;;;11.70;96.70;;;;;;5074119;28;20247;-70
2024/02/23 10:42:07;;;;;;;3.70;2.67;;;11.40;97.10;;;;;;5056636;28;20190;-69
2024/02/23 10:44:32;;;;;;;4.20;2.70;;;11.30;97.90;;;;;;5068124;28;20184;-70
2024/02/23 10:47:02;;;;;;;3.50;3.20;;;11.30;97.10;;;;;;5094237;28;20268;-70
2024/02/23 10:49:29;;;;;;;3.00;2.80;;;11.10;97.60;;;;;;5094271;28;20239;-70
2024/02/23 10:51:56;;;;;;;3.00;2.77;;;10.80;97.30;;;;;;5094464;28;20189;-70
2024/02/23 10:54:22;;;;;;;4.97;2.80;;;10.60;98.30;;;;;;5094657;28;20165;-72
2024/02/23 10:56:50;;;;;;;5.30;3.10;;;10.40;99.10;;;;;;5091565;28;20692;-71
2024/02/23 10:59:18;;;;;;;3.57;2.83;;;10.20;99.90;;;;;;5604146;22;20232;-89
2024/02/23 11:01:49;;;;;;;3.43;2.70;;;10.10;99.90;;;;;;5093067;28;20199;-90
2024/02/23 11:04:18;;;;;;;3.23;2.97;;;9.90;99.90;;;;;;5091700;28;20169;-89
2024/02/23 11:06:50;;;;;;;3.23;3.03;;;9.80;99.90;;;;;;5100456;28;20174;-89
2024/02/23 11:09:16;;;;;;;4.03;3.20;;;9.60;99.90;;;;;;5101508;28;20162;-87
2024/02/23 11:11:55;;;;;;;3.97;3.50;;;9.50;99.90;;;;;;5095335;28;20173;-88
2024/02/23 11:14:39;;;;;;;3.17;2.93;;;9.50;99.90;;;;;;5085161;28;20177;-88
2024/02/23 11:17:06;;;;;;;3.20;3.00;;;9.50;99.90;;;;;;5090934;28;20212;-88
2024/02/23 11:19:34;;;;;;;3.43;3.23;;;9.50;99.90;;;;;;5087596;28;20237;-89
2024/02/23 11:22:00;;;;;;;3.17;2.87;;;9.50;99.90;;;;;;5085847;28;20193;-88
2024/02/23 11:24:29;;;;;;;3.20;3.00;;;9.60;99.90;;;;;;5084373;28;20174;-90
2024/02/23 11:27:13;;;;;;;3.33;3.13;;;9.80;99.90;;;;;;5085170;28;20193;-92
2024/02/23 11:29:40;;;;;;;3.60;3.00;;;9.90;99.90;;;;;;5099103;28;20580;-90
2024/02/23 11:32:16;;;;;;;3.53;2.83;;;10.10;99.90;;;;;;5082685;28;20181;-90
2024/02/23 11:34:43;;;;;;;4.80;3.30;;;10.30;99.90;;;;;;5081673;28;20169;-89
2024/02/23 11:37:12;;;;;;;4.60;3.20;;;10.40;99.90;;;;;;5083699;28;20299;-91
2024/02/23 11:39:39;;;;;;;3.20;2.77;;;10.50;99.90;;;;;;5102263;28;20173;-90
2024/02/23 11:42:06;;;;;;;3.03;2.83;;;10.70;99.90;;;;;;5065121;28;20193;-90
2024/02/23 11:44:32;;;;;;;3.43;3.13;;;10.80;99.90;;;;;;5083202;28;20235;-88
2024/02/23 11:47:02;;;;;;;3.10;2.47;;;11.00;99.90;;;;;;5084818;28;20197;-89
2024/02/23 11:49:29;;;;;;;3.00;2.73;;;11.00;99.90;;;;;;5081164;28;20170;-89
2024/02/23 11:51:55;;;;;;;5.83;2.97;;;11.00;99.90;;;;;;5078515;28;20173;-90
2024/02/23 11:54:30;;;;;;;3.63;2.83;;;11.00;99.90;;;;;;5065997;28;20322;-90
2024/02/23 11:56:56;;;;;;;4.00;3.00;;;11.00;99.90;;;;;;5071002;28;20213;-88
2024/02/23 11:59:26;;;;;;;3.27;2.90;;;10.90;99.90;;;;;;5062182;28;20200;-89
2024/02/23 12:01:52;;;;;;;3.53;3.00;;;10.90;99.90;;;;;;5061914;28;20228;-90
2024/02/23 12:04:18;;;;;;;3.73;2.90;;;10.80;99.90;;;;;;5061714;28;20182;-89
2024/02/23 12:06:45;;;;;;;4.67;3.20;;;10.70;99.90;;;;;;5080824;28;20258;-89
2024/02/23 12:09:12;;;;;;;6.00;3.33;;;10.70;99.90;;;;;;5062509;28;20178;-89
2024/02/23 12:11:39;;;;;;;5.57;3.17;;;10.70;99.90;;;;;;5061206;28;20530;-89
2024/02/23 12:14:08;;;;;;;4.13;3.73;;;10.70;99.90;;;;;;5046049;28;20198;-91
2024/02/23 12:16:37;;;;;;;6.83;3.30;;;10.40;99.90;;;;;;5046539;28;20193;-90
2024/02/23 12:19:03;;;;;;;3.70;2.97;;;10.20;99.90;;;;;;5066718;28;20170;-87
2024/02/23 12:21:29;;;;;;;5.17;2.80;;;10.20;99.90;;;;;;5075745;28;20198;-88
2024/02/23 12:23:55;;;;;;;5.37;3.03;;;10.20;99.90;;;;;;5067629;28;20234;-89
2024/02/23 12:26:22;;;;;;;3.43;3.10;;;10.20;99.90;;;;;;5081939;28;20174;-90
2024/02/23 12:28:59;;;;;;;5.03;3.50;;;10.20;99.90;;;;;;5099586;28;20177;-90
2024/02/23 12:31:26;;;;;;;8.47;3.33;;;10.30;99.90;;;;;;5080802;28;20246;-89
2024/02/23 12:33:53;;;;;;;5.23;3.00;;;10.60;99.90;;;;;;5081851;28;20172;-89
2024/02/23 12:36:20;;;;;;;3.30;2.97;;;10.90;99.90;;;;;;5082216;28;20185;-89
2024/02/23 12:38:45;;;;;;;3.27;2.90;;;11.10;99.90;;;;;;5084181;28;20209;-90
2024/02/23 12:41:12;;;;;;;7.53;3.00;;;11.40;99.90;;;;;;5077820;28;20166;-90
2024/02/23 12:43:38;;;;;;;4.50;3.03;;;11.40;99.90;;;;;;5062892;28;20166;-91
2024/02/23 12:46:08;;;;;;;4.50;3.00;;;11.30;99.60;;;;;;5062106;28;20243;-91
2024/02/23 12:48:34;;;;;;;5.00;2.90;;;11.40;99.90;;;;;;5060214;28;20228;-90